Time;durP1;ratioP1;P1;durP2;ratioP2;P2;SDS_P1;SDS_P2;PMS_P1;PMS_P2;Temp;Humidity;BMP_temperature;BMP_pressure;BME280_temperature;BME280_humidity;BME280_pressure;Samples;Min_cycle;Max_cycle;Signal;HPM_P1;HPM_P2
2023/09/29 00:00:13;;;;;;;3.22;1.25;;;19.70;55.20;;;;;;2370753;53;21676;-68
2023/09/29 00:02:40;;;;;;;4.43;1.50;;;19.70;55.20;;;;;;2370446;53;20906;-69
2023/09/29 00:05:09;;;;;;;5.47;1.35;;;19.60;55.20;;;;;;2623179;52;20966;-67
2023/09/29 00:07:35;;;;;;;3.37;1.20;;;19.60;55.20;;;;;;2370544;53;20954;-69
2023/09/29 00:10:02;;;;;;;2.97;1.40;;;19.60;55.20;;;;;;2369487;53;20910;-66
2023/09/29 00:12:28;;;;;;;3.58;1.55;;;19.60;55.30;;;;;;2619805;52;20926;-67
2023/09/29 00:14:55;;;;;;;3.25;1.52;;;19.60;55.30;;;;;;2621692;52;20927;-66
2023/09/29 00:17:22;;;;;;;2.87;1.33;;;19.60;55.40;;;;;;2621644;52;21744;-69
2023/09/29 00:19:48;;;;;;;3.78;1.67;;;19.50;55.40;;;;;;2623004;52;20902;-66
2023/09/29 00:22:15;;;;;;;4.05;1.70;;;19.50;55.40;;;;;;2369977;53;20906;-69
2023/09/29 00:24:42;;;;;;;3.80;1.55;;;19.50;55.40;;;;;;2622738;52;21713;-67
2023/09/29 00:27:08;;;;;;;3.05;1.40;;;19.50;55.40;;;;;;2370084;53;21642;-69
2023/09/29 00:29:35;;;;;;;3.47;1.50;;;19.50;56.10;;;;;;2370137;53;20963;-67
2023/09/29 00:32:05;;;;;;;2.75;1.30;;;19.40;55.40;;;;;;2621838;52;20977;-67
2023/09/29 00:34:31;;;;;;;3.55;1.50;;;19.50;55.50;;;;;;2369358;53;21013;-66
2023/09/29 00:36:58;;;;;;;3.03;1.12;;;19.40;55.50;;;;;;2613175;52;20913;-67
2023/09/29 00:39:24;;;;;;;3.22;1.50;;;19.40;55.50;;;;;;2366254;53;20977;-67
2023/09/29 00:41:51;;;;;;;3.45;1.90;;;19.40;55.50;;;;;;2622624;52;21393;-66
2023/09/29 00:44:18;;;;;;;3.30;1.40;;;19.40;55.60;;;;;;2622160;52;20926;-66
2023/09/29 00:46:45;;;;;;;3.05;1.27;;;19.30;55.50;;;;;;2619320;52;21009;-66
2023/09/29 00:49:13;;;;;;;2.53;1.12;;;19.30;55.60;;;;;;2615552;52;20963;-69
2023/09/29 00:51:40;;;;;;;2.65;1.30;;;19.30;55.60;;;;;;2369923;53;21925;-67
2023/09/29 00:54:10;;;;;;;4.28;1.42;;;19.30;55.60;;;;;;2370292;53;21307;-66
2023/09/29 00:56:36;;;;;;;3.55;1.35;;;19.30;55.80;;;;;;2622141;52;20947;-66
2023/09/29 00:59:05;;;;;;;3.40;1.27;;;19.20;55.70;;;;;;2370341;53;20992;-66
2023/09/29 01:01:36;;;;;;;2.70;1.20;;;19.20;55.70;;;;;;2622029;52;21500;-67
2023/09/29 01:04:02;;;;;;;3.22;1.50;;;19.20;55.70;;;;;;2622583;52;21018;-67
2023/09/29 01:06:32;;;;;;;3.97;1.60;;;19.20;55.70;;;;;;2365897;53;22126;-66
2023/09/29 01:08:58;;;;;;;4.30;1.40;;;19.20;55.80;;;;;;2618195;52;20991;-67
2023/09/29 01:11:25;;;;;;;5.07;1.35;;;19.20;55.90;;;;;;2622040;52;20993;-66
2023/09/29 01:13:52;;;;;;;3.92;2.08;;;19.20;55.90;;;;;;2622693;52;20989;-67
2023/09/29 01:16:19;;;;;;;3.12;1.52;;;19.10;55.90;;;;;;2622503;52;21365;-66
2023/09/29 01:18:49;;;;;;;3.45;1.52;;;19.10;56.00;;;;;;2622320;52;20918;-65
2023/09/29 01:21:16;;;;;;;3.78;1.48;;;19.10;56.10;;;;;;2370338;53;21792;-67
2023/09/29 01:23:44;;;;;;;2.70;1.10;;;19.10;56.00;;;;;;2621788;52;21002;-68
2023/09/29 01:26:10;;;;;;;3.05;1.50;;;19.10;56.00;;;;;;2622338;52;20925;-66
2023/09/29 01:28:36;;;;;;;3.40;1.60;;;19.00;56.00;;;;;;2370315;53;20951;-65
2023/09/29 01:31:06;;;;;;;3.60;1.55;;;19.00;56.10;;;;;;2370697;53;20910;-65
2023/09/29 01:33:34;;;;;;;2.83;1.23;;;19.00;56.20;;;;;;2619458;52;20923;-65
2023/09/29 01:36:00;;;;;;;3.15;1.40;;;19.00;56.20;;;;;;2368779;53;20910;-66
2023/09/29 01:38:29;;;;;;;3.47;1.67;;;19.00;56.20;;;;;;2369248;53;21030;-66
2023/09/29 01:40:58;;;;;;;3.03;1.30;;;19.00;56.20;;;;;;2370152;53;20993;-66
2023/09/29 01:43:24;;;;;;;3.25;1.50;;;19.00;56.20;;;;;;2369526;53;20927;-65
2023/09/29 01:45:51;;;;;;;3.28;1.52;;;19.00;56.30;;;;;;2622339;52;20914;-65
2023/09/29 01:48:18;;;;;;;3.08;1.45;;;18.90;56.20;;;;;;2369742;53;21006;-66
2023/09/29 01:50:44;;;;;;;4.05;1.37;;;18.90;56.20;;;;;;2621975;52;21565;-65
2023/09/29 01:53:13;;;;;;;2.70;1.30;;;18.90;56.30;;;;;;2369887;53;20969;-66
2023/09/29 01:55:39;;;;;;;3.60;1.55;;;18.90;56.30;;;;;;2618112;52;21046;-66
2023/09/29 01:58:06;;;;;;;6.50;1.48;;;18.90;56.40;;;;;;2597797;52;20954;-66
2023/09/29 02:00:35;;;;;;;3.37;1.48;;;18.90;56.40;;;;;;2619814;52;21659;-66
2023/09/29 02:03:06;;;;;;;3.20;1.65;;;18.90;56.50;;;;;;2363250;53;20894;-65
2023/09/29 02:05:34;;;;;;;4.75;1.70;;;18.90;56.60;;;;;;2621294;52;20942;-67
2023/09/29 02:08:05;;;;;;;3.28;1.58;;;18.90;56.70;;;;;;2370134;53;20953;-65
2023/09/29 02:10:31;;;;;;;3.58;1.58;;;18.90;56.70;;;;;;2363986;53;21024;-66
2023/09/29 02:12:58;;;;;;;3.37;1.50;;;18.90;56.80;;;;;;2366181;54;20979;-66
2023/09/29 02:15:26;;;;;;;3.55;1.70;;;18.90;56.90;;;;;;2622840;52;20923;-66
2023/09/29 02:18:01;;;;;;;4.65;2.28;;;18.90;57.00;;;;;;2370164;53;20982;-65
2023/09/29 02:20:32;;;;;;;3.15;1.62;;;18.90;57.10;;;;;;2369582;53;20913;-65
2023/09/29 02:23:00;;;;;;;4.55;1.42;;;19.00;57.20;;;;;;2621052;52;21026;-65
2023/09/29 02:25:28;;;;;;;3.45;1.48;;;19.00;57.20;;;;;;2622711;52;20917;-65
2023/09/29 02:27:58;;;;;;;3.03;1.55;;;19.00;57.30;;;;;;2370379;53;20922;-66
2023/09/29 02:30:24;;;;;;;3.47;1.55;;;19.00;57.40;;;;;;2369783;53;20914;-66
2023/09/29 02:32:53;;;;;;;3.85;1.60;;;19.00;57.20;;;;;;2622781;52;20927;-67
2023/09/29 02:35:20;;;;;;;3.40;1.70;;;19.00;57.40;;;;;;2622478;52;20898;-69
2023/09/29 02:37:47;;;;;;;3.60;1.62;;;19.00;57.50;;;;;;2369615;53;20895;-67
2023/09/29 02:40:15;;;;;;;3.30;1.77;;;19.10;57.60;;;;;;2365181;54;21001;-65
2023/09/29 02:42:43;;;;;;;3.80;1.75;;;19.10;57.70;;;;;;2622691;52;21068;-66
2023/09/29 02:45:12;;;;;;;5.22;2.10;;;19.10;57.70;;;;;;2342887;53;21302;-66
2023/09/29 02:47:42;;;;;;;2.95;1.45;;;19.10;57.70;;;;;;2588175;52;20965;-66
2023/09/29 02:50:10;;;;;;;4.60;2.05;;;19.20;57.80;;;;;;2354655;53;21429;-66
2023/09/29 02:52:40;;;;;;;6.53;1.92;;;19.20;57.80;;;;;;2346782;53;20960;-65
2023/09/29 02:55:12;;;;;;;3.58;1.60;;;19.20;57.80;;;;;;2589246;52;20921;-66
2023/09/29 02:57:41;;;;;;;5.27;1.80;;;19.20;57.80;;;;;;2588854;52;20952;-65
2023/09/29 03:00:14;;;;;;;4.10;1.73;;;19.20;57.70;;;;;;2342678;53;21034;-68
2023/09/29 03:02:42;;;;;;;4.28;1.80;;;19.30;57.80;;;;;;2579694;53;21446;-67
2023/09/29 03:05:14;;;;;;;5.05;1.90;;;19.30;57.80;;;;;;2589122;52;20945;-67
2023/09/29 03:07:41;;;;;;;2.97;1.60;;;19.30;57.80;;;;;;2370642;53;20986;-66
2023/09/29 03:10:07;;;;;;;3.47;1.60;;;19.40;57.90;;;;;;2622428;52;21372;-65
2023/09/29 03:12:35;;;;;;;3.28;1.50;;;19.40;57.90;;;;;;2369006;53;20942;-66
2023/09/29 03:15:09;;;;;;;2.95;1.45;;;19.40;57.80;;;;;;2374069;53;20942;-66
2023/09/29 03:17:37;;;;;;;8.45;1.87;;;19.40;57.80;;;;;;2612942;52;21241;-66
2023/09/29 03:20:09;;;;;;;3.95;1.75;;;19.40;57.80;;;;;;2622857;52;21049;-68
2023/09/29 03:22:38;;;;;;;;;;;19.40;57.90;;;;;;2625807;52;21173;-65
2023/09/29 03:25:05;;;;;;;3.28;1.35;;;19.40;58.00;;;;;;2621957;52;20053;-66
2023/09/29 03:27:34;;;;;;;4.00;1.50;;;19.40;57.70;;;;;;2370199;53;20921;-67
2023/09/29 03:30:09;;;;;;;3.60;1.45;;;19.40;57.80;;;;;;2371182;53;20930;-66
2023/09/29 03:32:35;;;;;;;3.17;1.50;;;19.40;57.80;;;;;;2368492;53;20976;-67
2023/09/29 03:35:04;;;;;;;4.55;1.87;;;19.40;57.80;;;;;;2366653;53;20926;-66
2023/09/29 03:37:36;;;;;;;3.70;1.42;;;19.40;57.80;;;;;;2622753;52;21025;-66
2023/09/29 03:40:09;;;;;;;4.25;1.48;;;19.40;57.80;;;;;;2622905;52;21425;-66
2023/09/29 03:42:37;;;;;;;3.40;1.65;;;19.40;57.90;;;;;;2622299;52;20914;-65
2023/09/29 03:45:05;;;;;;;3.58;1.23;;;19.50;58.00;;;;;;2622530;52;20927;-66
2023/09/29 03:47:33;;;;;;;4.65;1.62;;;19.50;58.00;;;;;;2370689;53;20988;-68
2023/09/29 03:50:00;;;;;;;3.40;1.52;;;19.40;57.90;;;;;;2365919;53;21046;-66
2023/09/29 03:52:29;;;;;;;3.12;1.50;;;19.40;58.00;;;;;;2620087;52;21699;-66
2023/09/29 03:54:56;;;;;;;2.67;1.40;;;19.50;58.00;;;;;;2368046;53;20922;-65
2023/09/29 03:57:23;;;;;;;3.47;1.55;;;19.40;57.90;;;;;;2366306;53;20949;-65
2023/09/29 03:59:49;;;;;;;3.62;1.60;;;19.50;58.00;;;;;;2614640;52;20902;-65
2023/09/29 04:02:20;;;;;;;2.90;1.37;;;19.40;57.90;;;;;;2368281;53;20985;-64
2023/09/29 04:04:47;;;;;;;3.25;1.40;;;19.40;57.90;;;;;;2367339;53;20982;-64
2023/09/29 04:07:14;;;;;;;4.80;1.60;;;19.40;57.90;;;;;;2621777;52;20989;-65
2023/09/29 04:09:43;;;;;;;3.28;1.48;;;19.40;58.00;;;;;;2621751;52;20930;-69
2023/09/29 04:12:10;;;;;;;3.40;1.62;;;19.40;58.00;;;;;;2369973;53;21006;-66
2023/09/29 04:14:36;;;;;;;3.20;1.80;;;19.40;58.10;;;;;;2369919;53;21076;-66
2023/09/29 04:17:04;;;;;;;3.67;1.50;;;19.40;58.10;;;;;;2370124;53;20938;-65
2023/09/29 04:19:31;;;;;;;3.30;1.50;;;19.40;58.30;;;;;;2622240;52;21292;-65
2023/09/29 04:21:57;;;;;;;3.45;1.60;;;19.40;58.20;;;;;;2369864;53;20946;-65
2023/09/29 04:24:24;;;;;;;4.50;1.80;;;19.50;58.30;;;;;;2370279;53;20986;-68
2023/09/29 04:26:53;;;;;;;3.28;1.60;;;19.40;58.30;;;;;;2367112;53;22142;-67
2023/09/29 04:29:20;;;;;;;3.15;1.73;;;19.50;58.40;;;;;;2367583;53;20949;-68
2023/09/29 04:31:50;;;;;;;2.95;1.58;;;19.50;58.30;;;;;;2617714;52;20919;-69
2023/09/29 04:34:17;;;;;;;3.85;1.37;;;19.50;58.30;;;;;;2622472;52;20946;-65
2023/09/29 04:36:44;;;;;;;3.53;1.80;;;19.50;58.30;;;;;;2369774;53;21006;-64
2023/09/29 04:39:11;;;;;;;3.62;1.80;;;19.50;58.30;;;;;;2370416;53;20926;-67
2023/09/29 04:41:39;;;;;;;3.45;1.60;;;19.50;58.40;;;;;;2370329;53;20909;-66
2023/09/29 04:44:05;;;;;;;2.90;1.50;;;19.50;58.40;;;;;;2622600;52;21054;-66
2023/09/29 04:46:35;;;;;;;3.15;1.73;;;19.50;58.40;;;;;;2369741;53;21847;-68
2023/09/29 04:49:03;;;;;;;4.07;1.83;;;19.50;58.50;;;;;;2370066;53;21965;-67
2023/09/29 04:51:33;;;;;;;3.60;1.58;;;19.50;58.60;;;;;;2370032;53;20930;-70
2023/09/29 04:54:03;;;;;;;3.37;1.62;;;19.50;58.70;;;;;;2370140;53;20934;-68
2023/09/29 04:56:29;;;;;;;3.45;1.80;;;19.50;58.70;;;;;;2369840;53;20978;-67
2023/09/29 04:58:55;;;;;;;4.53;2.00;;;19.50;58.70;;;;;;2621045;52;20902;-65
2023/09/29 05:01:27;;;;;;;4.25;1.80;;;19.60;58.70;;;;;;2369477;53;20926;-66
2023/09/29 05:03:56;;;;;;;3.75;1.77;;;19.60;58.70;;;;;;2612010;52;20934;-67
2023/09/29 05:06:24;;;;;;;3.60;1.83;;;19.60;58.70;;;;;;2621845;52;20966;-68
2023/09/29 05:08:50;;;;;;;3.75;1.60;;;19.60;58.60;;;;;;2617878;52;21129;-67
2023/09/29 05:11:23;;;;;;;2.92;1.52;;;19.60;58.60;;;;;;2616581;52;20953;-67
2023/09/29 05:13:50;;;;;;;5.18;1.80;;;19.60;58.70;;;;;;2342883;54;20996;-68
2023/09/29 05:16:17;;;;;;;3.75;1.98;;;19.60;58.70;;;;;;2611641;52;21013;-68
2023/09/29 05:18:46;;;;;;;6.45;2.08;;;19.60;58.80;;;;;;2370154;53;21663;-67
2023/09/29 05:21:12;;;;;;;3.70;1.87;;;19.60;58.90;;;;;;2370195;53;21762;-68
2023/09/29 05:23:40;;;;;;;3.20;1.67;;;19.60;58.90;;;;;;2370056;53;20990;-67
2023/09/29 05:26:07;;;;;;;3.70;1.90;;;19.60;58.80;;;;;;2370262;53;21049;-70
2023/09/29 05:28:34;;;;;;;3.40;1.77;;;19.60;58.80;;;;;;2370738;53;21340;-67
2023/09/29 05:31:03;;;;;;;4.72;1.73;;;19.60;58.70;;;;;;2369728;53;21288;-69
2023/09/29 05:33:30;;;;;;;3.20;1.50;;;19.60;58.70;;;;;;2365685;53;21517;-68
2023/09/29 05:35:57;;;;;;;3.70;1.98;;;19.60;58.70;;;;;;2621755;52;20922;-69
2023/09/29 05:38:23;;;;;;;4.00;1.90;;;19.60;58.70;;;;;;2615280;52;20988;-68
2023/09/29 05:40:53;;;;;;;4.20;1.42;;;19.60;58.70;;;;;;2614408;52;21667;-67
2023/09/29 05:43:19;;;;;;;4.07;2.15;;;19.60;58.70;;;;;;2611146;52;21355;-68
2023/09/29 05:45:46;;;;;;;4.37;1.75;;;19.60;58.70;;;;;;2621111;52;20899;-70
2023/09/29 05:48:15;;;;;;;3.45;1.58;;;19.60;58.70;;;;;;2620690;52;20954;-67
2023/09/29 05:50:42;;;;;;;4.65;2.08;;;19.60;58.70;;;;;;2622039;52;21400;-66
2023/09/29 05:53:11;;;;;;;3.78;1.80;;;19.60;58.70;;;;;;2369378;53;21001;-66
2023/09/29 05:55:38;;;;;;;3.05;1.65;;;19.60;58.70;;;;;;2622714;52;20983;-66
2023/09/29 05:58:04;;;;;;;3.45;1.60;;;19.60;58.60;;;;;;2369630;53;20934;-68
2023/09/29 06:00:33;;;;;;;3.42;1.98;;;19.60;58.60;;;;;;2622493;52;20914;-66
2023/09/29 06:02:59;;;;;;;3.70;1.70;;;19.50;58.60;;;;;;2370562;53;20931;-66
2023/09/29 06:05:29;;;;;;;3.60;1.70;;;19.50;58.60;;;;;;2622384;52;20922;-67
2023/09/29 06:07:55;;;;;;;3.70;1.90;;;19.50;58.60;;;;;;2622576;52;21396;-65
2023/09/29 06:10:24;;;;;;;3.33;1.65;;;19.50;58.60;;;;;;2369075;53;20921;-68
2023/09/29 06:12:51;;;;;;;3.28;1.70;;;19.50;58.70;;;;;;2370407;53;20934;-65
2023/09/29 06:15:18;;;;;;;3.42;1.52;;;19.50;58.80;;;;;;2369910;53;20995;-67
2023/09/29 06:17:44;;;;;;;3.28;1.42;;;19.40;58.70;;;;;;2620392;52;20930;-66
2023/09/29 06:20:11;;;;;;;3.33;1.70;;;19.50;58.90;;;;;;2369289;53;20978;-66
2023/09/29 06:22:37;;;;;;;4.68;1.83;;;19.40;58.90;;;;;;2370616;53;20906;-66
2023/09/29 06:25:04;;;;;;;3.47;1.50;;;19.50;59.00;;;;;;2622684;52;20990;-66
2023/09/29 06:27:30;;;;;;;3.60;1.48;;;19.50;59.20;;;;;;2359675;53;20950;-66
2023/09/29 06:29:57;;;;;;;3.42;1.77;;;19.50;59.10;;;;;;2348938;53;20990;-66
2023/09/29 06:32:24;;;;;;;3.80;1.77;;;19.50;59.20;;;;;;2342632;53;21004;-66
2023/09/29 06:34:51;;;;;;;5.53;2.30;;;19.50;59.30;;;;;;2343375;53;21001;-66
2023/09/29 06:37:19;;;;;;;3.33;1.92;;;19.50;59.40;;;;;;2588069;52;20932;-69
2023/09/29 06:39:46;;;;;;;3.30;1.83;;;19.50;59.50;;;;;;2589006;52;21027;-66
2023/09/29 06:42:12;;;;;;;4.47;1.60;;;19.60;59.60;;;;;;2588827;52;21402;-66
2023/09/29 06:44:39;;;;;;;3.28;1.60;;;19.60;59.70;;;;;;2588599;52;21047;-65
2023/09/29 06:47:06;;;;;;;4.00;2.20;;;19.60;59.70;;;;;;2352311;53;21462;-66
2023/09/29 06:49:34;;;;;;;4.78;2.17;;;19.70;59.80;;;;;;2349299;53;21028;-66
2023/09/29 06:52:00;;;;;;;3.78;2.00;;;19.70;59.90;;;;;;2342592;53;20984;-66
2023/09/29 06:54:26;;;;;;;3.42;1.77;;;19.70;59.90;;;;;;2342025;53;21493;-67
2023/09/29 06:56:53;;;;;;;4.40;1.98;;;19.80;60.00;;;;;;2342692;53;20938;-65
2023/09/29 06:59:22;;;;;;;3.47;1.90;;;19.80;59.90;;;;;;2589285;52;20941;-66
2023/09/29 07:01:48;;;;;;;3.67;1.73;;;19.90;60.00;;;;;;2589285;52;20968;-65
2023/09/29 07:04:14;;;;;;;3.30;1.67;;;19.90;60.00;;;;;;2587636;52;20933;-67
2023/09/29 07:06:42;;;;;;;4.22;2.22;;;20.00;60.10;;;;;;2589699;52;20948;-67
2023/09/29 07:09:10;;;;;;;3.60;1.90;;;20.00;60.20;;;;;;2586236;53;20920;-66
2023/09/29 07:11:41;;;;;;;3.58;1.90;;;20.10;60.20;;;;;;2572984;52;20937;-66
2023/09/29 07:14:09;;;;;;;3.72;1.87;;;20.10;60.20;;;;;;2342906;53;20997;-67
2023/09/29 07:16:35;;;;;;;4.07;1.75;;;20.10;60.10;;;;;;2589380;52;20932;-66
2023/09/29 07:19:02;;;;;;;3.62;1.90;;;20.20;60.30;;;;;;2355984;54;20914;-67
2023/09/29 07:21:29;;;;;;;4.55;2.10;;;20.20;60.30;;;;;;2616152;52;20959;-67
2023/09/29 07:23:56;;;;;;;4.75;2.40;;;20.30;60.30;;;;;;2588254;52;20932;-68
2023/09/29 07:26:23;;;;;;;4.45;2.22;;;20.30;60.40;;;;;;2616782;52;21455;-67
2023/09/29 07:28:54;;;;;;;4.45;2.65;;;20.40;60.50;;;;;;2361356;53;20925;-68
2023/09/29 07:31:21;;;;;;;;;;;20.40;60.80;;;;;;2347578;53;21774;-66
2023/09/29 07:33:47;;;;;;;3.78;2.10;;;20.50;60.70;;;;;;2344599;53;20075;-66
2023/09/29 07:36:17;;;;;;;6.00;2.25;;;20.50;60.40;;;;;;2557678;52;20967;-67
2023/09/29 07:38:44;;;;;;;4.85;2.80;;;20.50;60.60;;;;;;2347363;53;21019;-67
2023/09/29 07:41:10;;;;;;;5.25;2.50;;;20.60;60.80;;;;;;2355959;53;20917;-66
2023/09/29 07:43:37;;;;;;;4.40;2.17;;;20.70;61.00;;;;;;2342733;53;21465;-67
2023/09/29 07:46:05;;;;;;;4.43;2.67;;;20.70;61.10;;;;;;2342515;53;21014;-67
2023/09/29 07:48:34;;;;;;;4.47;2.37;;;20.80;61.30;;;;;;2342899;53;20982;-68
2023/09/29 07:51:01;;;;;;;5.03;2.25;;;20.90;61.40;;;;;;2588280;52;20972;-66
2023/09/29 07:53:28;;;;;;;4.20;2.12;;;20.90;61.40;;;;;;2600433;52;21086;-67
2023/09/29 07:55:55;;;;;;;7.15;2.20;;;21.00;61.40;;;;;;2623222;52;20907;-66
2023/09/29 07:58:21;;;;;;;7.43;2.37;;;21.10;61.50;;;;;;2370246;53;21054;-70
2023/09/29 08:00:48;;;;;;;4.28;2.35;;;21.20;61.50;;;;;;2622791;52;20938;-67
2023/09/29 08:03:14;;;;;;;5.03;2.37;;;21.20;61.60;;;;;;2622384;52;21067;-68
2023/09/29 08:05:41;;;;;;;4.97;2.10;;;21.40;61.80;;;;;;2622982;52;21010;-66
2023/09/29 08:08:07;;;;;;;5.15;2.20;;;21.40;61.80;;;;;;2622832;52;20902;-67
2023/09/29 08:10:33;;;;;;;3.58;2.03;;;21.60;62.10;;;;;;2370108;53;20906;-68
2023/09/29 08:13:00;;;;;;;3.97;2.12;;;21.60;62.10;;;;;;2370434;53;20978;-67
2023/09/29 08:15:26;;;;;;;3.70;1.92;;;21.80;62.30;;;;;;2369735;53;20930;-69
2023/09/29 08:17:53;;;;;;;8.13;2.08;;;21.80;62.20;;;;;;2623391;52;20922;-66
2023/09/29 08:20:20;;;;;;;4.22;2.05;;;21.90;62.30;;;;;;2369287;53;20978;-67
2023/09/29 08:22:46;;;;;;;4.15;2.28;;;22.10;63.10;;;;;;2623064;52;20915;-65
2023/09/29 08:25:14;;;;;;;4.03;1.98;;;22.20;62.30;;;;;;2369154;53;20915;-67
2023/09/29 08:27:41;;;;;;;4.07;1.87;;;22.40;62.40;;;;;;2370116;53;20906;-67
2023/09/29 08:30:08;;;;;;;3.62;1.90;;;22.50;62.30;;;;;;2370043;53;20962;-66
2023/09/29 08:32:37;;;;;;;3.47;1.75;;;22.70;62.30;;;;;;2622200;52;20911;-66
2023/09/29 08:35:05;;;;;;;8.48;2.00;;;22.80;62.00;;;;;;2369435;53;20989;-66
2023/09/29 08:37:31;;;;;;;3.47;1.80;;;23.00;62.00;;;;;;2621608;52;21817;-67
2023/09/29 08:39:57;;;;;;;4.32;2.20;;;23.10;61.90;;;;;;2370549;53;21140;-67
2023/09/29 08:42:35;;;;;;;4.70;1.98;;;23.30;61.70;;;;;;2621434;52;21003;-67
2023/09/29 08:45:01;;;;;;;3.75;1.70;;;23.50;61.30;;;;;;2370019;53;20963;-67
2023/09/29 08:47:30;;;;;;;5.55;2.08;;;23.60;61.30;;;;;;2368748;53;21376;-67
2023/09/29 08:49:57;;;;;;;3.87;1.95;;;23.80;61.00;;;;;;2370653;53;20918;-68
2023/09/29 08:52:24;;;;;;;4.18;2.28;;;23.90;60.80;;;;;;2612783;52;20921;-68
2023/09/29 08:54:50;;;;;;;3.75;1.90;;;24.10;60.70;;;;;;2623433;52;20953;-67
2023/09/29 08:57:17;;;;;;;3.12;1.83;;;24.20;60.50;;;;;;2369294;53;20922;-68
2023/09/29 08:59:48;;;;;;;3.62;1.75;;;24.40;60.20;;;;;;2370035;53;20890;-66
2023/09/29 09:02:15;;;;;;;4.95;2.08;;;24.50;60.10;;;;;;2621923;52;20914;-66
2023/09/29 09:04:41;;;;;;;3.62;2.10;;;24.60;60.00;;;;;;2620387;52;20919;-69
2023/09/29 09:07:07;;;;;;;4.37;2.10;;;24.80;59.80;;;;;;2621712;52;21640;-67
2023/09/29 09:09:36;;;;;;;4.22;2.05;;;24.90;59.50;;;;;;2365171;53;20885;-68
2023/09/29 09:12:02;;;;;;;4.12;2.20;;;25.00;59.20;;;;;;2369891;53;20994;-68
2023/09/29 09:14:41;;;;;;;3.58;1.77;;;25.10;59.00;;;;;;2620382;52;21364;-68
2023/09/29 09:17:08;;;;;;;3.75;2.20;;;25.30;58.30;;;;;;2369232;53;20950;-65
2023/09/29 09:19:45;;;;;;;4.12;2.35;;;25.40;58.50;;;;;;2622158;52;21838;-67
2023/09/29 09:22:16;;;;;;;4.47;2.08;;;25.50;58.00;;;;;;2622114;52;20979;-69
2023/09/29 09:24:42;;;;;;;5.03;2.00;;;25.60;58.10;;;;;;2365899;54;21049;-66
2023/09/29 09:27:08;;;;;;;3.90;2.00;;;25.70;58.10;;;;;;2622865;52;21205;-67
2023/09/29 09:29:44;;;;;;;4.15;2.20;;;25.80;57.80;;;;;;2369574;53;21446;-66
2023/09/29 09:32:10;;;;;;;3.87;1.85;;;25.90;57.20;;;;;;2588018;52;21087;-65
2023/09/29 09:34:37;;;;;;;3.97;1.77;;;26.00;57.40;;;;;;2359818;53;21955;-67
2023/09/29 09:37:05;;;;;;;4.25;2.03;;;26.10;57.30;;;;;;2343140;53;21561;-67
2023/09/29 09:39:33;;;;;;;3.97;1.92;;;26.10;57.20;;;;;;2587788;52;20925;-67
2023/09/29 09:41:59;;;;;;;4.25;2.20;;;26.20;57.10;;;;;;2342788;53;21367;-69
2023/09/29 09:44:26;;;;;;;4.03;1.95;;;26.30;57.00;;;;;;2340947;53;20976;-67
2023/09/29 09:46:53;;;;;;;4.12;1.92;;;26.40;56.90;;;;;;2589655;52;21393;-69
2023/09/29 09:49:23;;;;;;;6.60;1.70;;;26.40;56.70;;;;;;2587916;52;21092;-66
2023/09/29 09:51:52;;;;;;;4.65;1.92;;;26.50;56.50;;;;;;2342435;53;20928;-70
2023/09/29 09:54:22;;;;;;;3.65;1.92;;;26.60;56.50;;;;;;2340957;53;21107;-66
2023/09/29 09:57:00;;;;;;;3.55;1.75;;;26.70;56.20;;;;;;2589435;52;20945;-69
2023/09/29 09:59:31;;;;;;;4.28;1.90;;;26.70;56.00;;;;;;2341608;53;21012;-67
2023/09/29 10:01:57;;;;;;;6.28;2.00;;;26.80;56.10;;;;;;2589332;52;20920;-68
2023/09/29 10:04:26;;;;;;;4.07;2.17;;;26.90;56.10;;;;;;2342020;53;20920;-66
2023/09/29 10:06:55;;;;;;;3.42;1.70;;;26.90;55.90;;;;;;2342700;53;21764;-66
2023/09/29 10:09:22;;;;;;;3.20;1.83;;;27.00;55.80;;;;;;2587022;52;21029;-67
2023/09/29 10:12:00;;;;;;;3.37;1.92;;;27.10;55.70;;;;;;2342239;53;20912;-67
2023/09/29 10:14:29;;;;;;;5.32;1.77;;;27.20;55.10;;;;;;2342256;53;20941;-68
2023/09/29 10:17:05;;;;;;;4.40;2.00;;;27.30;55.40;;;;;;2589227;52;20928;-70
2023/09/29 10:19:37;;;;;;;4.20;1.80;;;27.30;55.00;;;;;;2342831;53;20948;-70
2023/09/29 10:22:04;;;;;;;4.15;2.05;;;27.40;54.80;;;;;;2342935;53;20904;-68
2023/09/29 10:24:30;;;;;;;3.83;2.03;;;27.40;54.90;;;;;;2342042;53;20937;-71
2023/09/29 10:27:11;;;;;;;5.40;2.20;;;27.50;54.60;;;;;;2342891;53;20960;-70
2023/09/29 10:29:38;;;;;;;3.35;1.73;;;27.60;54.50;;;;;;2342381;53;21016;-70
2023/09/29 10:32:10;;;;;;;3.80;2.03;;;27.70;54.70;;;;;;2342805;53;20920;-66
2023/09/29 10:34:37;;;;;;;5.60;2.12;;;27.70;54.40;;;;;;2341994;53;20996;-68
2023/09/29 10:37:04;;;;;;;3.72;1.77;;;27.80;54.40;;;;;;2342845;53;21004;-65
2023/09/29 10:39:30;;;;;;;4.87;2.05;;;27.80;54.20;;;;;;2605015;52;20969;-70
2023/09/29 10:42:04;;;;;;;3.60;1.90;;;27.90;54.20;;;;;;2324619;53;20954;-69
2023/09/29 10:44:31;;;;;;;3.83;2.12;;;27.90;54.10;;;;;;2365968;53;20962;-67
2023/09/29 10:46:57;;;;;;;4.37;1.75;;;28.00;54.00;;;;;;2623428;52;20982;-67
2023/09/29 10:49:33;;;;;;;3.60;1.90;;;28.00;54.00;;;;;;2369645;53;21950;-69
2023/09/29 10:52:00;;;;;;;4.40;2.20;;;28.10;53.40;;;;;;2369956;53;21032;-66
2023/09/29 10:54:26;;;;;;;3.85;1.85;;;28.20;53.70;;;;;;2373621;53;21753;-69
2023/09/29 10:56:53;;;;;;;4.05;2.00;;;28.20;53.50;;;;;;2362931;54;20921;-69
2023/09/29 10:59:19;;;;;;;3.97;2.03;;;28.30;53.40;;;;;;2621484;52;21672;-71
2023/09/29 11:01:46;;;;;;;3.80;1.90;;;28.40;53.30;;;;;;2370748;53;21481;-69
2023/09/29 11:04:13;;;;;;;4.50;2.00;;;28.40;53.20;;;;;;2370102;53;20946;-69
2023/09/29 11:06:49;;;;;;;3.47;1.77;;;28.50;53.30;;;;;;2623114;52;21424;-68
2023/09/29 11:09:19;;;;;;;4.10;1.85;;;28.50;52.60;;;;;;2369522;53;21076;-69
2023/09/29 11:11:45;;;;;;;4.95;2.15;;;28.50;53.00;;;;;;2370453;53;21108;-69
2023/09/29 11:14:12;;;;;;;4.05;1.90;;;28.60;52.90;;;;;;2622031;52;20919;-68
2023/09/29 11:16:38;;;;;;;3.55;1.73;;;28.60;52.80;;;;;;2370094;53;20938;-68
2023/09/29 11:19:12;;;;;;;5.53;1.90;;;28.70;52.90;;;;;;2370394;53;20938;-68
2023/09/29 11:21:39;;;;;;;4.00;1.83;;;28.80;52.40;;;;;;2370144;53;20977;-69
2023/09/29 11:24:10;;;;;;;4.78;2.30;;;28.80;52.60;;;;;;2574745;52;21421;-67
2023/09/29 11:26:41;;;;;;;3.70;1.70;;;28.80;52.40;;;;;;2369562;53;20909;-67
2023/09/29 11:29:19;;;;;;;2.85;1.55;;;28.90;52.50;;;;;;2347295;53;21032;-67
2023/09/29 11:31:45;;;;;;;3.70;1.80;;;29.00;52.60;;;;;;2620688;52;20946;-68
2023/09/29 11:34:13;;;;;;;3.95;2.00;;;29.00;52.50;;;;;;2623265;52;21033;-66
2023/09/29 11:36:39;;;;;;;4.85;2.20;;;29.10;52.40;;;;;;2622252;52;20993;-67
2023/09/29 11:39:08;;;;;;;3.75;1.83;;;29.10;52.30;;;;;;2362969;53;20981;-67
2023/09/29 11:41:38;;;;;;;4.20;2.47;;;29.20;52.30;;;;;;2621951;52;21966;-67
2023/09/29 11:44:08;;;;;;;3.40;1.90;;;29.20;52.20;;;;;;2579919;53;20941;-68
2023/09/29 11:46:35;;;;;;;3.25;1.70;;;29.30;52.10;;;;;;2368204;53;21419;-67
2023/09/29 11:49:02;;;;;;;3.78;2.00;;;29.30;52.10;;;;;;2368904;53;21664;-66
2023/09/29 11:51:30;;;;;;;3.85;2.05;;;29.40;52.00;;;;;;2617287;52;20914;-67
2023/09/29 11:53:56;;;;;;;3.40;1.90;;;29.40;51.80;;;;;;2623195;52;20899;-67
2023/09/29 11:56:23;;;;;;;3.37;1.90;;;29.50;51.70;;;;;;2369044;53;21072;-68
2023/09/29 11:58:49;;;;;;;4.47;2.20;;;29.50;51.40;;;;;;2372264;53;20946;-69
2023/09/29 12:01:19;;;;;;;4.32;2.03;;;29.60;51.50;;;;;;2369672;53;21787;-67
2023/09/29 12:03:46;;;;;;;3.50;1.73;;;29.60;51.30;;;;;;2368844;53;20950;-68
2023/09/29 12:06:12;;;;;;;4.60;2.20;;;29.70;51.20;;;;;;2370266;53;21428;-67
2023/09/29 12:08:38;;;;;;;3.78;1.83;;;29.70;51.10;;;;;;2369834;53;20914;-69
2023/09/29 12:11:05;;;;;;;3.08;1.70;;;29.70;51.00;;;;;;2370078;53;20998;-67
2023/09/29 12:13:33;;;;;;;3.95;2.10;;;29.80;50.90;;;;;;2621256;52;21563;-67
2023/09/29 12:15:59;;;;;;;4.12;2.03;;;29.80;50.80;;;;;;2372669;53;21037;-67
2023/09/29 12:18:26;;;;;;;4.78;1.65;;;29.80;50.90;;;;;;2365776;53;21001;-65
2023/09/29 12:20:53;;;;;;;3.25;1.75;;;29.90;50.70;;;;;;2345818;54;21071;-67
2023/09/29 12:23:19;;;;;;;3.40;1.60;;;29.90;50.70;;;;;;2610437;52;21483;-68
2023/09/29 12:25:47;;;;;;;3.75;1.75;;;29.90;50.60;;;;;;2370652;53;21558;-68
2023/09/29 12:28:19;;;;;;;3.80;1.98;;;30.00;50.50;;;;;;2620824;52;21435;-68
2023/09/29 12:30:45;;;;;;;3.22;1.70;;;30.00;50.40;;;;;;2621846;52;20959;-68
2023/09/29 12:33:12;;;;;;;3.25;1.65;;;30.10;50.40;;;;;;2620805;52;20970;-68
2023/09/29 12:35:38;;;;;;;3.95;2.03;;;30.10;50.30;;;;;;2370565;53;21407;-67
2023/09/29 12:38:05;;;;;;;3.20;1.67;;;30.10;50.50;;;;;;2623808;52;20970;-68
2023/09/29 12:40:32;;;;;;;3.25;1.70;;;30.20;50.40;;;;;;2369703;53;20978;-70
2023/09/29 12:43:00;;;;;;;2.90;1.50;;;30.20;50.30;;;;;;2354687;53;20945;-69
2023/09/29 12:45:26;;;;;;;3.28;1.65;;;30.30;50.40;;;;;;2588164;52;21350;-70
2023/09/29 12:47:56;;;;;;;3.33;1.60;;;30.30;50.30;;;;;;2589095;52;21159;-67
2023/09/29 12:50:22;;;;;;;2.53;1.30;;;30.30;50.70;;;;;;2341586;53;21249;-69